Time;durP1;ratioP1;P1;durP2;ratioP2;P2;SDS_P1;SDS_P2;PMS_P1;PMS_P2;Temp;Humidity;BMP_temperature;BMP_pressure;BME280_temperature;BME280_humidity;BME280_pressure;Samples;Min_cycle;Max_cycle;Signal;HPM_P1;HPM_P2
2022/04/21 00:01:39;;;;;;;9.70;4.22;;;14.60;44.00;;;;;;5034089;28;20034;-62
2022/04/21 00:04:04;;;;;;;8.15;4.15;;;14.60;44.00;;;;;;5044485;28;20354;-64
2022/04/21 00:06:30;;;;;;;7.30;3.50;;;14.60;44.10;;;;;;5053605;28;20031;-63
2022/04/21 00:08:56;;;;;;;8.93;4.53;;;14.60;44.30;;;;;;5038676;28;20034;-62
2022/04/21 00:11:21;;;;;;;8.85;4.15;;;14.50;44.30;;;;;;5034635;28;20055;-62
2022/04/21 00:13:47;;;;;;;8.10;4.00;;;14.50;44.50;;;;;;5041218;28;20402;-62
2022/04/21 00:16:13;;;;;;;8.85;3.85;;;14.50;44.60;;;;;;5054512;28;20029;-62
2022/04/21 00:18:39;;;;;;;7.65;3.92;;;14.40;44.80;;;;;;5038402;28;20363;-62
2022/04/21 00:21:05;;;;;;;9.95;3.95;;;14.50;45.00;;;;;;5034532;28;20055;-62
2022/04/21 00:23:31;;;;;;;7.95;4.07;;;14.40;45.10;;;;;;5041566;28;20078;-62
2022/04/21 00:26:00;;;;;;;9.75;4.00;;;14.40;45.20;;;;;;5035052;28;20120;-62
2022/04/21 00:28:28;;;;;;;8.00;3.65;;;14.40;45.40;;;;;;5044222;28;20061;-62
2022/04/21 00:30:54;;;;;;;8.65;4.03;;;14.40;45.50;;;;;;5034281;28;20036;-62
2022/04/21 00:33:20;;;;;;;7.43;4.18;;;14.30;45.60;;;;;;5038056;28;20401;-62
2022/04/21 00:35:45;;;;;;;8.43;4.32;;;14.30;45.60;;;;;;5036513;28;20034;-62
2022/04/21 00:38:11;;;;;;;7.30;3.80;;;14.30;45.80;;;;;;5045680;28;20060;-63
2022/04/21 00:40:37;;;;;;;8.52;4.28;;;14.30;46.00;;;;;;5046286;28;20029;-62
2022/04/21 00:43:02;;;;;;;8.38;4.55;;;14.30;46.10;;;;;;5054463;28;20029;-62
2022/04/21 00:45:29;;;;;;;8.88;4.18;;;14.30;46.30;;;;;;5050247;28;20037;-62
2022/04/21 00:48:00;;;;;;;9.65;4.68;;;14.20;46.30;;;;;;5044901;28;20045;-63
2022/04/21 00:50:29;;;;;;;7.07;4.03;;;14.20;46.50;;;;;;5034161;28;20044;-62
2022/04/21 00:52:57;;;;;;;9.07;4.22;;;14.20;46.70;;;;;;5034358;28;20033;-62
2022/04/21 00:55:23;;;;;;;8.68;4.13;;;14.20;46.80;;;;;;5036416;28;20026;-63
2022/04/21 00:57:51;;;;;;;10.45;4.85;;;14.20;46.90;;;;;;5033440;28;20021;-62
2022/04/21 01:00:17;;;;;;;9.52;4.45;;;14.20;47.10;;;;;;5033949;28;20033;-63
2022/04/21 01:02:46;;;;;;;8.70;4.30;;;14.20;47.30;;;;;;5053128;28;20095;-62
2022/04/21 01:05:14;;;;;;;8.15;3.97;;;14.20;47.40;;;;;;5039632;28;20022;-63
2022/04/21 01:07:40;;;;;;;8.63;4.53;;;14.10;47.50;;;;;;5033707;28;20029;-62
2022/04/21 01:10:06;;;;;;;8.15;4.03;;;14.10;47.70;;;;;;5033944;28;20030;-62
2022/04/21 01:12:32;;;;;;;7.93;4.43;;;14.10;47.90;;;;;;5034315;28;20037;-62
2022/04/21 01:14:58;;;;;;;7.47;4.13;;;14.10;48.10;;;;;;5037170;28;20025;-62
2022/04/21 01:17:31;;;;;;;8.65;4.25;;;14.00;48.30;;;;;;5050192;28;20476;-62
2022/04/21 01:19:57;;;;;;;8.50;5.00;;;14.00;48.60;;;;;;5037464;28;20121;-63
2022/04/21 01:22:23;;;;;;;7.68;4.80;;;14.00;48.70;;;;;;5036978;28;20419;-63
2022/04/21 01:24:48;;;;;;;8.05;4.47;;;13.90;48.80;;;;;;5044201;28;20029;-62
2022/04/21 01:27:14;;;;;;;9.55;5.00;;;13.90;48.90;;;;;;5055631;28;20032;-62
2022/04/21 01:29:40;;;;;;;10.60;4.55;;;13.90;49.10;;;;;;5037387;28;20079;-62
2022/04/21 01:32:06;;;;;;;10.45;4.32;;;13.80;49.20;;;;;;5039835;28;20065;-62
2022/04/21 01:34:32;;;;;;;8.15;4.45;;;13.90;49.40;;;;;;5050859;28;20032;-62
2022/04/21 01:42:26;;;;;;;10.32;4.38;;;13.80;49.60;;;;;;5037597;28;20099;-62
2022/04/21 01:44:51;;;;;;;7.88;4.25;;;13.80;49.70;;;;;;5052056;28;20385;-62
2022/04/21 01:47:17;;;;;;;9.77;4.75;;;13.80;49.90;;;;;;5053230;28;20029;-62
2022/04/21 01:49:43;;;;;;;7.57;4.32;;;13.80;50.00;;;;;;5055822;28;20484;-62
2022/04/21 01:52:08;;;;;;;8.25;4.72;;;13.80;50.20;;;;;;5056792;28;20083;-62
2022/04/21 01:54:34;;;;;;;8.48;5.03;;;13.80;50.40;;;;;;5040244;28;20033;-63
2022/04/21 01:56:59;;;;;;;9.60;5.10;;;13.70;50.50;;;;;;5042610;28;20041;-62
2022/04/21 01:59:25;;;;;;;8.43;4.80;;;13.70;50.70;;;;;;5057625;28;20045;-62
2022/04/21 02:01:50;;;;;;;8.23;5.05;;;13.70;50.90;;;;;;5040731;28;20141;-62
2022/04/21 02:04:16;;;;;;;8.20;4.90;;;13.70;51.10;;;;;;5037046;28;20051;-62
2022/04/21 02:06:41;;;;;;;8.60;5.15;;;13.60;51.10;;;;;;5037157;28;20026;-62
2022/04/21 02:09:07;;;;;;;8.00;4.70;;;13.60;51.30;;;;;;5052462;28;20033;-62
2022/04/21 02:11:33;;;;;;;7.75;4.30;;;13.60;51.40;;;;;;5042920;28;20018;-62
2022/04/21 02:13:58;;;;;;;8.15;4.60;;;13.50;51.50;;;;;;5045065;28;20453;-62
2022/04/21 02:16:24;;;;;;;10.30;4.88;;;13.50;51.60;;;;;;5043758;28;20030;-62
2022/04/21 02:18:50;;;;;;;9.15;4.88;;;13.50;51.60;;;;;;5036715;28;20040;-62
2022/04/21 02:21:16;;;;;;;9.57;5.05;;;13.50;51.70;;;;;;5037697;28;20037;-62
2022/04/21 02:23:41;;;;;;;10.40;5.38;;;13.50;51.80;;;;;;5036437;28;20025;-62
2022/04/21 02:26:07;;;;;;;9.15;4.95;;;13.40;51.80;;;;;;5035497;28;20473;-62
2022/04/21 02:28:33;;;;;;;9.45;4.93;;;13.40;51.90;;;;;;5053858;28;20520;-62
2022/04/21 02:30:58;;;;;;;10.00;5.25;;;13.40;51.90;;;;;;5046377;28;20469;-62
2022/04/21 02:33:24;;;;;;;9.00;4.97;;;13.40;52.00;;;;;;5051373;28;20453;-62
2022/04/21 02:35:50;;;;;;;9.43;4.82;;;13.40;52.00;;;;;;5038342;28;20481;-62
2022/04/21 02:38:16;;;;;;;9.43;5.22;;;13.40;52.70;;;;;;5056692;28;20056;-63
2022/04/21 02:40:43;;;;;;;8.15;4.57;;;13.40;52.10;;;;;;5048780;28;20068;-63
2022/04/21 02:43:08;;;;;;;10.10;5.10;;;13.40;52.20;;;;;;5037849;28;20128;-63
2022/04/21 02:45:35;;;;;;;8.77;5.40;;;13.30;52.20;;;;;;5055774;28;20068;-63
2022/04/21 02:48:01;;;;;;;11.90;5.65;;;13.30;52.20;;;;;;5054560;28;20071;-62
2022/04/21 02:50:26;;;;;;;7.60;4.57;;;13.20;52.30;;;;;;5055246;28;20048;-63
2022/04/21 02:52:53;;;;;;;8.57;4.93;;;13.30;52.30;;;;;;5053255;28;20035;-63
2022/04/21 02:58:03;;;;;;;9.15;5.22;;;13.20;52.30;;;;;;5053965;28;20090;-63
2022/04/21 03:00:29;;;;;;;9.70;5.43;;;13.20;52.40;;;;;;5055736;28;20108;-63
2022/04/21 03:02:56;;;;;;;10.10;5.40;;;13.20;52.40;;;;;;5052256;28;20120;-63
2022/04/21 03:05:21;;;;;;;10.18;6.05;;;13.20;52.40;;;;;;5053504;28;20446;-63
2022/04/21 03:07:47;;;;;;;10.35;5.45;;;13.20;52.60;;;;;;5037007;28;20026;-63
2022/04/21 03:10:13;;;;;;;10.90;5.50;;;13.20;53.20;;;;;;5035165;28;20454;-62
2022/04/21 03:12:39;;;;;;;11.07;5.68;;;13.10;52.50;;;;;;5035872;28;20037;-63
2022/04/21 03:15:05;;;;;;;8.93;5.00;;;13.10;52.50;;;;;;5034921;28;20032;-63
2022/04/21 03:17:30;;;;;;;9.30;5.45;;;13.10;52.40;;;;;;5036961;28;20048;-63
2022/04/21 03:19:56;;;;;;;8.65;4.97;;;13.10;52.40;;;;;;5044303;28;20034;-63
2022/04/21 03:25:08;;;;;;;8.10;4.15;;;13.10;52.40;;;;;;5035564;28;20043;-63
2022/04/21 03:27:34;;;;;;;8.15;4.55;;;13.10;52.50;;;;;;5035426;28;20029;-64
2022/04/21 03:30:00;;;;;;;8.23;4.63;;;13.10;52.50;;;;;;5035556;28;20072;-64
2022/04/21 03:32:26;;;;;;;8.75;4.55;;;13.10;52.60;;;;;;5035017;28;20042;-63
2022/04/21 03:34:53;;;;;;;7.65;4.32;;;13.00;52.50;;;;;;5045501;28;20039;-64
2022/04/21 03:37:20;;;;;;;10.57;4.68;;;13.00;52.60;;;;;;5054262;28;20032;-64
2022/04/21 03:39:46;;;;;;;8.52;3.95;;;13.00;52.60;;;;;;5030233;28;20033;-64
2022/04/21 03:42:31;;;;;;;8.40;4.50;;;13.00;52.60;;;;;;5035112;28;20104;-63
2022/04/21 03:44:57;;;;;;;7.80;4.10;;;13.00;52.60;;;;;;5038572;28;20043;-63
2022/04/21 03:47:23;;;;;;;7.35;3.80;;;12.90;52.70;;;;;;5060312;28;20024;-64
2022/04/21 03:49:49;;;;;;;7.72;4.45;;;12.90;52.70;;;;;;5051364;28;20041;-64
2022/04/21 03:52:15;;;;;;;8.98;4.30;;;12.90;52.90;;;;;;5054834;28;20048;-64
2022/04/21 03:54:41;;;;;;;7.35;4.28;;;12.90;52.90;;;;;;5053258;28;20025;-64
2022/04/21 03:57:07;;;;;;;8.40;4.25;;;12.80;52.90;;;;;;5053954;28;20327;-64
2022/04/21 03:59:34;;;;;;;7.25;3.65;;;12.80;53.00;;;;;;5038814;28;20442;-64
2022/04/21 04:02:02;;;;;;;7.88;4.18;;;12.80;53.00;;;;;;5034930;28;20095;-64
2022/04/21 04:04:32;;;;;;;7.22;4.20;;;12.80;53.10;;;;;;5048681;28;20029;-64
2022/04/21 04:12:31;;;;;;;8.43;4.28;;;12.70;53.20;;;;;;5035165;28;20450;-64
2022/04/21 04:14:58;;;;;;;9.98;4.35;;;12.70;53.90;;;;;;5033762;28;20113;-65
2022/04/21 04:17:23;;;;;;;7.97;4.25;;;12.70;53.40;;;;;;5045836;28;20025;-64
2022/04/21 04:19:49;;;;;;;7.45;4.40;;;12.70;53.40;;;;;;5034715;28;20534;-63
2022/04/21 04:22:15;;;;;;;8.07;4.05;;;12.60;53.50;;;;;;5044433;28;20076;-63
2022/04/21 04:24:41;;;;;;;9.35;4.60;;;12.60;53.70;;;;;;5051198;28;20075;-64
2022/04/21 04:27:07;;;;;;;7.90;4.40;;;12.60;53.80;;;;;;5042771;28;20049;-64
2022/04/21 04:29:32;;;;;;;8.50;4.45;;;12.60;53.80;;;;;;5036150;28;20075;-64
2022/04/21 04:32:00;;;;;;;10.35;4.47;;;12.60;53.90;;;;;;5050827;28;20052;-64
2022/04/21 04:34:26;;;;;;;8.50;4.43;;;12.60;53.90;;;;;;5038286;28;20057;-64
2022/04/21 04:36:52;;;;;;;7.88;4.05;;;12.50;54.00;;;;;;5039143;28;20387;-64
2022/04/21 04:39:17;;;;;;;8.07;4.40;;;12.50;54.00;;;;;;5050306;28;20091;-63
2022/04/21 04:44:28;;;;;;;8.45;4.35;;;12.50;54.20;;;;;;5040720;28;20029;-64
2022/04/21 04:46:55;;;;;;;8.38;4.53;;;12.50;54.20;;;;;;5052997;28;20041;-63
2022/04/21 04:49:21;;;;;;;8.32;4.93;;;12.40;54.30;;;;;;5047038;28;20057;-63
2022/04/21 04:51:47;;;;;;;7.85;4.93;;;12.40;54.30;;;;;;5057099;28;20071;-63
2022/04/21 04:54:14;;;;;;;7.47;4.47;;;12.40;54.40;;;;;;5058133;28;20477;-64
2022/04/21 04:56:42;;;;;;;7.63;4.13;;;12.40;54.40;;;;;;5054445;28;20037;-63
2022/04/21 04:59:08;;;;;;;9.27;4.68;;;12.40;54.40;;;;;;5058588;28;20029;-63
2022/04/21 05:01:42;;;;;;;9.65;4.70;;;12.40;54.50;;;;;;5054857;28;20489;-63
2022/04/21 05:04:15;;;;;;;7.85;4.05;;;12.40;54.50;;;;;;5046733;28;20029;-63
2022/04/21 05:06:43;;;;;;;8.00;4.57;;;12.50;54.60;;;;;;5053251;28;20029;-63
2022/04/21 05:09:17;;;;;;;7.93;4.03;;;12.50;54.50;;;;;;5049038;28;20060;-62
2022/04/21 05:11:48;;;;;;;8.30;4.13;;;12.40;54.50;;;;;;5054391;28;20466;-63
2022/04/21 05:14:14;;;;;;;9.67;4.70;;;12.40;54.50;;;;;;5037958;28;20017;-62
2022/04/21 05:16:40;;;;;;;7.57;4.00;;;12.50;54.40;;;;;;5037038;28;20017;-62
2022/04/21 05:19:11;;;;;;;7.70;3.72;;;12.50;54.40;;;;;;5038016;28;20029;-63
2022/04/21 05:21:38;;;;;;;7.20;3.97;;;12.50;54.40;;;;;;5036628;28;20084;-63
2022/04/21 05:24:04;;;;;;;8.50;4.40;;;12.50;54.40;;;;;;5037714;28;20037;-62
2022/04/21 05:26:32;;;;;;;8.32;4.30;;;12.50;54.50;;;;;;5039161;28;20033;-63
2022/04/21 05:28:59;;;;;;;8.75;4.15;;;12.50;54.40;;;;;;5046728;28;20048;-64
2022/04/21 05:31:26;;;;;;;8.00;4.35;;;12.60;54.50;;;;;;5050242;28;20112;-64
2022/04/21 05:33:53;;;;;;;8.00;4.78;;;12.80;54.20;;;;;;5053437;28;20045;-64
2022/04/21 05:36:19;;;;;;;7.70;4.05;;;13.20;53.70;;;;;;5052690;28;20038;-65
2022/04/21 05:38:49;;;;;;;7.78;4.35;;;13.50;53.10;;;;;;5054581;28;20078;-65
2022/04/21 05:41:16;;;;;;;9.15;4.07;;;13.80;52.70;;;;;;5038390;28;20041;-65
2022/04/21 05:43:44;;;;;;;7.03;3.95;;;14.20;51.90;;;;;;5051863;28;20032;-64
2022/04/21 05:46:12;;;;;;;7.22;3.92;;;14.50;51.40;;;;;;5056546;28;20032;-66
2022/04/21 05:48:39;;;;;;;7.47;3.88;;;14.70;50.90;;;;;;5043037;28;20033;-66
2022/04/21 05:51:06;;;;;;;8.68;4.07;;;14.70;50.80;;;;;;5051784;28;20040;-66
2022/04/21 05:53:36;;;;;;;7.85;3.97;;;15.00;50.60;;;;;;5055104;28;20021;-66
2022/04/21 05:56:04;;;;;;;7.18;3.70;;;15.00;50.30;;;;;;5056699;28;20082;-64
2022/04/21 05:58:30;;;;;;;7.80;3.70;;;15.10;50.20;;;;;;5051894;28;20037;-63
2022/04/21 06:00:57;;;;;;;7.75;3.83;;;15.10;50.00;;;;;;5053169;28;20040;-63
2022/04/21 06:03:22;;;;;;;7.70;3.80;;;15.10;49.90;;;;;;5044639;28;20029;-64
2022/04/21 06:05:48;;;;;;;7.30;3.78;;;15.10;49.70;;;;;;5037046;28;20083;-64
2022/04/21 06:08:14;;;;;;;7.95;3.75;;;15.30;49.60;;;;;;5044659;28;20052;-64
2022/04/21 06:10:40;;;;;;;6.80;3.58;;;16.00;48.80;;;;;;5038994;28;20035;-64
2022/04/21 06:13:06;;;;;;;6.47;3.30;;;16.70;47.50;;;;;;5050497;28;20021;-64
2022/04/21 06:15:33;;;;;;;7.35;3.10;;;17.40;46.30;;;;;;5054828;28;20057;-64
2022/04/21 06:17:59;;;;;;;7.45;3.40;;;17.80;45.50;;;;;;5050024;28;20394;-65
2022/04/21 06:20:26;;;;;;;6.65;3.50;;;17.90;45.10;;;;;;5055075;28;20044;-65
2022/04/21 06:22:52;;;;;;;7.90;3.13;;;17.80;45.30;;;;;;5056190;28;20035;-64
2022/04/21 06:25:18;;;;;;;6.30;3.13;;;17.70;45.50;;;;;;5044102;28;20032;-64
2022/04/21 06:27:44;;;;;;;6.53;3.30;;;17.50;45.70;;;;;;5056479;28;20455;-64
2022/04/21 06:30:10;;;;;;;6.68;3.00;;;17.30;45.80;;;;;;5046367;28;20038;-65
2022/04/21 06:32:36;;;;;;;8.00;4.00;;;17.20;45.90;;;;;;5036391;28;20083;-64
2022/04/21 06:35:03;;;;;;;7.10;3.35;;;17.10;46.10;;;;;;5035654;28;20038;-64
2022/04/21 06:37:29;;;;;;;6.47;3.50;;;17.00;46.10;;;;;;5036168;28;20033;-64
2022/04/21 06:39:54;;;;;;;6.40;3.20;;;16.90;46.10;;;;;;5042041;28;20342;-64
2022/04/21 06:42:20;;;;;;;7.07;3.58;;;16.90;46.10;;;;;;5056283;28;20461;-64
2022/04/21 06:50:14;;;;;;;7.82;3.67;;;17.00;45.90;;;;;;5042455;28;20033;-65
2022/04/21 06:52:39;;;;;;;6.50;3.28;;;17.10;45.80;;;;;;5038642;28;20025;-63
2022/04/21 06:55:05;;;;;;;6.32;3.58;;;17.20;45.70;;;;;;5047546;28;20021;-63
2022/04/21 06:57:31;;;;;;;8.38;3.63;;;17.30;45.60;;;;;;5046943;28;20025;-62
2022/04/21 06:59:56;;;;;;;6.60;3.25;;;17.30;45.50;;;;;;5055644;28;20021;-63
2022/04/21 07:02:31;;;;;;;8.38;3.28;;;17.40;45.30;;;;;;5040184;28;20365;-63
2022/04/21 07:05:08;;;;;;;7.45;3.10;;;17.60;45.00;;;;;;5035113;28;20037;-63
2022/04/21 07:07:33;;;;;;;7.03;3.10;;;17.70;44.70;;;;;;5049714;28;20078;-63
2022/04/21 07:10:00;;;;;;;7.40;3.20;;;17.80;44.50;;;;;;5055210;28;20423;-63
2022/04/21 07:12:33;;;;;;;6.47;2.90;;;17.80;44.30;;;;;;5054137;28;20357;-63
2022/04/21 07:15:00;;;;;;;7.45;3.22;;;17.90;43.90;;;;;;5055930;28;20033;-64
2022/04/21 07:17:26;;;;;;;6.93;3.10;;;17.90;43.70;;;;;;5041157;28;20329;-64
2022/04/21 07:19:52;;;;;;;6.47;3.00;;;18.00;43.40;;;;;;5052137;28;20036;-64
2022/04/21 07:22:21;;;;;;;6.10;2.80;;;18.20;43.00;;;;;;5054334;28;20451;-64
2022/04/21 07:24:47;;;;;;;6.20;3.13;;;18.20;42.60;;;;;;5055400;28;20438;-65
2022/04/21 07:27:14;;;;;;;4.80;2.40;;;18.30;42.50;;;;;;5050418;28;20036;-65
2022/04/21 07:29:39;;;;;;;6.80;2.83;;;18.50;42.10;;;;;;5052767;28;20036;-64
2022/04/21 07:32:05;;;;;;;5.68;2.50;;;18.50;41.60;;;;;;5034967;28;20386;-64
2022/04/21 07:34:31;;;;;;;5.35;2.45;;;18.60;41.30;;;;;;5047121;28;20025;-64
2022/04/21 07:36:57;;;;;;;6.10;2.70;;;18.70;41.00;;;;;;5054979;28;20024;-64
2022/04/21 07:39:22;;;;;;;5.85;2.65;;;18.90;40.80;;;;;;5045510;28;20435;-64
2022/04/21 07:41:48;;;;;;;6.05;2.70;;;19.00;40.40;;;;;;5053350;28;20036;-65
2022/04/21 07:44:14;;;;;;;5.55;2.55;;;19.10;40.10;;;;;;5047649;28;20476;-64
2022/04/21 07:46:39;;;;;;;7.15;2.58;;;19.30;39.90;;;;;;5033975;28;20072;-64
2022/04/21 07:51:49;;;;;;;4.97;2.65;;;19.60;39.30;;;;;;5035151;28;20095;-65
2022/04/21 07:54:14;;;;;;;4.75;2.22;;;19.70;39.00;;;;;;5042290;28;20457;-64
2022/04/21 07:56:40;;;;;;;5.05;2.38;;;19.80;38.70;;;;;;5054356;28;20048;-63
2022/04/21 07:59:06;;;;;;;6.75;2.47;;;19.80;38.60;;;;;;5050717;28;20033;-63
2022/04/21 08:01:32;;;;;;;5.78;2.35;;;19.90;38.40;;;;;;5055221;28;20037;-64
2022/04/21 08:04:04;;;;;;;5.70;2.40;;;20.00;38.30;;;;;;5050711;28;20131;-64
2022/04/21 08:06:29;;;;;;;5.10;2.47;;;20.10;38.10;;;;;;5054975;28;20120;-63
2022/04/21 08:08:55;;;;;;;5.88;2.67;;;20.30;38.00;;;;;;5054481;28;20128;-64
2022/04/21 08:11:21;;;;;;;6.20;2.33;;;20.40;37.80;;;;;;5054581;28;20100;-63
2022/04/21 08:13:47;;;;;;;4.50;2.15;;;20.40;37.40;;;;;;5054465;28;20093;-63
2022/04/21 08:16:13;;;;;;;5.00;2.28;;;20.50;37.00;;;;;;5054185;28;20029;-63
2022/04/21 08:18:39;;;;;;;5.65;2.40;;;20.60;37.00;;;;;;5053444;28;20063;-64
2022/04/21 08:21:05;;;;;;;5.35;2.60;;;20.60;36.90;;;;;;5053570;28;20426;-63
2022/04/21 08:23:36;;;;;;;4.97;2.35;;;20.70;36.90;;;;;;5056919;28;20103;-63
2022/04/21 08:34:14;;;;;;;5.63;2.42;;;21.00;36.00;;;;;;5058445;28;20051;-64
2022/04/21 08:36:39;;;;;;;4.60;2.03;;;21.10;35.90;;;;;;5057612;28;20032;-64
2022/04/21 08:39:05;;;;;;;6.70;2.20;;;21.10;35.60;;;;;;5058362;28;20350;-64
2022/04/21 08:41:34;;;;;;;5.45;2.42;;;21.10;35.50;;;;;;5058488;28;20454;-64
2022/04/21 08:44:03;;;;;;;4.88;2.13;;;21.20;35.50;;;;;;5058462;28;20036;-63
2022/04/21 08:46:32;;;;;;;6.00;2.40;;;21.30;35.50;;;;;;5058208;28;20024;-64
2022/04/21 08:49:00;;;;;;;4.75;2.40;;;21.30;35.20;;;;;;5058072;28;20362;-64
2022/04/21 08:51:28;;;;;;;5.15;2.47;;;21.40;35.20;;;;;;5038959;28;20108;-64
2022/04/21 08:53:55;;;;;;;5.38;2.63;;;21.50;35.10;;;;;;5038120;28;20036;-64
2022/04/21 08:56:22;;;;;;;5.22;2.17;;;21.50;35.00;;;;;;5038057;28;20079;-65
2022/04/21 08:58:48;;;;;;;5.10;2.40;;;21.50;35.10;;;;;;5051564;28;20029;-64
2022/04/21 09:01:14;;;;;;;6.25;2.80;;;21.50;35.00;;;;;;5057073;28;20032;-64
2022/04/21 09:03:40;;;;;;;6.00;2.70;;;21.50;34.90;;;;;;5058230;28;20083;-64
2022/04/21 09:06:05;;;;;;;6.75;2.10;;;21.60;34.90;;;;;;5057849;28;20033;-64
2022/04/21 09:08:34;;;;;;;8.40;2.53;;;21.60;34.70;;;;;;5057766;28;20430;-64
2022/04/21 09:11:04;;;;;;;4.82;2.17;;;21.50;34.70;;;;;;5057775;28;20025;-62
2022/04/21 09:13:32;;;;;;;6.68;2.42;;;21.50;34.50;;;;;;5040431;28;20060;-63
2022/04/21 09:16:04;;;;;;;5.32;2.15;;;21.50;34.60;;;;;;5074134;28;20117;-63
2022/04/21 09:18:48;;;;;;;5.70;2.00;;;21.70;34.30;;;;;;5057534;28;20103;-63
2022/04/21 09:21:16;;;;;;;5.18;2.00;;;21.60;33.70;;;;;;5058186;28;20123;-63
2022/04/21 09:23:43;;;;;;;3.88;1.77;;;21.60;33.80;;;;;;5058047;28;20409;-63
2022/04/21 09:26:12;;;;;;;4.53;1.83;;;21.60;33.70;;;;;;5056497;28;20381;-64
2022/04/21 09:28:38;;;;;;;4.65;1.92;;;21.70;33.40;;;;;;5057107;28;20093;-63
2022/04/21 09:31:08;;;;;;;4.60;1.95;;;21.60;33.30;;;;;;5057677;28;20157;-63
2022/04/21 09:33:41;;;;;;;4.72;2.03;;;21.60;33.30;;;;;;5056808;28;20492;-63
2022/04/21 09:36:08;;;;;;;5.30;2.10;;;21.70;33.30;;;;;;5057476;28;20050;-63
2022/04/21 09:38:34;;;;;;;3.92;1.77;;;21.70;33.30;;;;;;5057765;28;20110;-63
2022/04/21 09:41:10;;;;;;;5.68;2.38;;;21.80;33.10;;;;;;5057599;28;20061;-64
2022/04/21 09:43:41;;;;;;;4.93;2.40;;;21.90;33.10;;;;;;5057006;28;20029;-64
2022/04/21 09:46:15;;;;;;;4.72;2.20;;;21.90;33.10;;;;;;5057014;28;20041;-63
2022/04/21 09:48:41;;;;;;;4.10;2.08;;;22.00;33.10;;;;;;5057509;28;20075;-64
2022/04/21 09:51:15;;;;;;;3.63;1.63;;;22.10;33.20;;;;;;5057494;28;20078;-63
2022/04/21 09:54:00;;;;;;;4.82;2.00;;;22.20;33.10;;;;;;5056912;28;20450;-64
2022/04/21 09:56:32;;;;;;;4.72;2.10;;;22.30;32.80;;;;;;5057386;28;20513;-64
2022/04/21 09:59:09;;;;;;;3.72;1.58;;;22.30;32.80;;;;;;5056578;28;20033;-64
2022/04/21 10:01:38;;;;;;;4.78;2.03;;;22.30;32.80;;;;;;5057163;28;20029;-65
2022/04/21 10:04:08;;;;;;;7.88;2.22;;;22.40;32.80;;;;;;5056745;28;20033;-65
2022/04/21 10:06:37;;;;;;;4.45;2.10;;;22.50;33.10;;;;;;5055805;28;20033;-65
2022/04/21 10:09:03;;;;;;;5.43;1.85;;;22.40;32.40;;;;;;5056322;28;20111;-64
2022/04/21 10:11:29;;;;;;;4.80;2.17;;;22.50;32.40;;;;;;5055649;28;20112;-64
2022/04/21 10:13:56;;;;;;;4.90;2.00;;;22.50;32.20;;;;;;5055617;28;20028;-64
2022/04/21 10:16:28;;;;;;;4.75;2.20;;;22.40;32.30;;;;;;5056163;28;20028;-67
2022/04/21 10:18:57;;;;;;;4.75;1.88;;;22.40;32.20;;;;;;5056495;28;20123;-65
2022/04/21 10:21:34;;;;;;;4.38;1.80;;;22.40;32.10;;;;;;5056713;28;20067;-65
2022/04/21 10:24:00;;;;;;;4.22;1.83;;;22.40;32.00;;;;;;5056305;28;20028;-64
2022/04/21 10:26:40;;;;;;;4.53;1.80;;;22.30;31.80;;;;;;5056793;28;20028;-64
2022/04/21 10:29:21;;;;;;;3.88;1.85;;;22.40;31.60;;;;;;5055895;28;20040;-64
2022/04/21 10:31:59;;;;;;;3.75;1.90;;;22.40;31.70;;;;;;5056645;28;20029;-64
2022/04/21 10:34:36;;;;;;;4.63;1.92;;;22.50;31.60;;;;;;5056526;28;20112;-65
2022/04/21 10:37:21;;;;;;;4.13;1.90;;;22.40;31.40;;;;;;5050257;28;20029;-64
2022/04/21 10:40:05;;;;;;;4.38;1.90;;;22.40;31.40;;;;;;5051823;28;20090;-65
2022/04/21 10:42:58;;;;;;;5.55;2.00;;;22.50;31.50;;;;;;5051945;28;20036;-65
2022/04/21 10:45:25;;;;;;;3.38;1.60;;;22.60;31.50;;;;;;5037099;28;20056;-66
2022/04/21 10:48:04;;;;;;;5.13;1.90;;;22.70;31.40;;;;;;5043413;28;20077;-65
2022/04/21 10:50:31;;;;;;;5.28;1.60;;;22.70;31.20;;;;;;5047881;28;20025;-65
2022/04/21 10:58:34;;;;;;;3.75;1.70;;;22.80;31.10;;;;;;5055730;28;20028;-65
2022/04/21 11:01:13;;;;;;;4.05;1.83;;;22.90;31.00;;;;;;5054535;28;20059;-64
2022/04/21 11:03:40;;;;;;;4.38;2.00;;;23.00;31.00;;;;;;5055637;28;20055;-65
2022/04/21 11:06:12;;;;;;;5.10;2.05;;;23.00;30.90;;;;;;5050754;28;20028;-65
2022/04/21 11:08:38;;;;;;;4.63;1.90;;;23.00;30.80;;;;;;5054872;28;20338;-64
2022/04/21 11:11:05;;;;;;;3.92;1.77;;;23.00;30.80;;;;;;5054266;28;20024;-65
2022/04/21 11:14:02;;;;;;;5.50;1.98;;;23.00;30.80;;;;;;5054899;28;20055;-64
2022/04/21 11:16:40;;;;;;;4.97;1.88;;;23.20;30.60;;;;;;5052629;28;20021;-64
2022/04/21 11:19:31;;;;;;;4.50;1.75;;;23.20;30.50;;;;;;5053411;28;20043;-62
2022/04/21 11:21:57;;;;;;;;;;;23.20;30.50;;;;;;5055612;28;20032;-65
2022/04/21 11:24:24;;;;;;;6.00;2.20;;;22.90;31.00;;;;;;5055185;28;19954;-64
2022/04/21 11:26:57;;;;;;;3.97;2.00;;;22.60;31.20;;;;;;5054290;28;20044;-65
2022/04/21 11:29:23;;;;;;;5.90;2.05;;;22.40;31.30;;;;;;5052362;28;20025;-64
2022/04/21 11:31:54;;;;;;;3.78;1.98;;;22.20;31.40;;;;;;5017154;28;20021;-64
2022/04/21 11:34:24;;;;;;;5.00;2.05;;;22.20;31.40;;;;;;5046929;28;20033;-64
2022/04/21 11:36:53;;;;;;;5.47;2.17;;;22.30;31.50;;;;;;5050602;28;20056;-65
2022/04/21 11:39:20;;;;;;;3.75;1.83;;;22.30;31.20;;;;;;5035253;28;20036;-65
2022/04/21 11:41:48;;;;;;;4.65;2.20;;;22.40;31.20;;;;;;5036628;28;20041;-64
2022/04/21 11:44:22;;;;;;;4.10;1.90;;;22.40;30.90;;;;;;5045040;28;20131;-64
2022/04/21 11:46:48;;;;;;;6.13;2.20;;;22.40;30.90;;;;;;5054088;28;20033;-64
2022/04/21 11:49:14;;;;;;;4.35;2.17;;;22.40;30.90;;;;;;5054296;28;20047;-64
2022/04/21 11:51:41;;;;;;;5.88;2.22;;;22.40;31.00;;;;;;5053211;28;20365;-64
2022/04/21 11:54:08;;;;;;;6.80;2.45;;;22.30;31.00;;;;;;5053910;28;20120;-63
2022/04/21 11:56:34;;;;;;;5.60;2.67;;;22.30;31.20;;;;;;5047988;28;20434;-63
2022/04/21 11:59:10;;;;;;;6.60;2.60;;;22.20;31.30;;;;;;5054661;28;20099;-63
2022/04/21 12:07:09;;;;;;;4.60;1.83;;;22.00;31.60;;;;;;5053009;28;20033;-63
2022/04/21 12:09:39;;;;;;;5.47;2.58;;;22.00;31.60;;;;;;5049850;28;20029;-63
2022/04/21 12:12:07;;;;;;;4.37;2.03;;;22.10;31.70;;;;;;5051766;28;20029;-63
2022/04/21 12:14:33;;;;;;;6.55;2.10;;;22.20;31.70;;;;;;5049034;28;20276;-63
2022/04/21 12:17:00;;;;;;;4.85;2.10;;;22.30;31.60;;;;;;5034164;28;20017;-63
2022/04/21 12:19:37;;;;;;;6.03;2.42;;;22.40;31.60;;;;;;5033335;28;20033;-63
2022/04/21 12:22:11;;;;;;;5.53;2.22;;;22.50;31.50;;;;;;5040086;28;20033;-64
2022/04/21 12:24:50;;;;;;;5.00;2.22;;;22.30;31.50;;;;;;5037975;28;20033;-63
2022/04/21 12:27:17;;;;;;;5.40;2.63;;;22.10;31.50;;;;;;5032832;28;20025;-63
2022/04/21 12:29:53;;;;;;;6.25;2.58;;;21.90;31.70;;;;;;5041655;28;20029;-63
2022/04/21 12:32:27;;;;;;;4.85;2.17;;;21.80;32.00;;;;;;5041929;28;20120;-64
2022/04/21 12:34:58;;;;;;;8.02;2.40;;;21.70;32.20;;;;;;5048273;28;20091;-63
2022/04/21 12:37:31;;;;;;;5.30;2.38;;;21.60;32.30;;;;;;5051812;28;20401;-64
2022/04/21 12:39:59;;;;;;;7.13;2.58;;;21.60;32.40;;;;;;5044631;28;20441;-63
2022/04/21 12:42:25;;;;;;;5.65;2.40;;;21.40;32.70;;;;;;5041626;28;20033;-63
2022/04/21 12:44:53;;;;;;;5.90;2.63;;;21.30;32.90;;;;;;5034247;28;20044;-63
2022/04/21 12:47:20;;;;;;;5.18;2.58;;;21.30;33.10;;;;;;5035740;28;20083;-63
2022/04/21 12:49:55;;;;;;;7.13;3.20;;;21.30;33.40;;;;;;5049134;28;20466;-63
2022/04/21 12:52:56;;;;;;;7.18;2.47;;;21.30;33.60;;;;;;5040398;28;20030;-63
2022/04/21 12:55:23;;;;;;;8.18;2.53;;;21.30;33.80;;;;;;5043744;28;20049;-63
2022/04/21 12:58:06;;;;;;;6.45;2.30;;;21.20;33.90;;;;;;5035551;28;20025;-63
2022/04/21 13:00:33;;;;;;;9.05;2.55;;;21.20;34.20;;;;;;5034310;28;20116;-63
2022/04/21 13:03:02;;;;;;;4.95;2.50;;;21.20;34.20;;;;;;5034817;28;20044;-63
2022/04/21 13:05:28;;;;;;;7.22;2.95;;;21.20;34.40;;;;;;5049510;28;20085;-63
2022/04/21 13:07:54;;;;;;;8.27;3.15;;;21.10;34.50;;;;;;5052947;28;20121;-63
2022/04/21 13:10:22;;;;;;;7.32;3.20;;;21.20;34.60;;;;;;5057269;28;20116;-63
2022/04/21 13:12:48;;;;;;;6.10;2.70;;;21.20;34.70;;;;;;5058329;28;20098;-63
2022/04/21 13:15:14;;;;;;;6.38;2.90;;;21.10;35.40;;;;;;5057668;28;20519;-63
2022/04/21 13:17:40;;;;;;;7.70;2.85;;;21.00;34.90;;;;;;5057496;28;20025;-63
2022/04/21 13:20:07;;;;;;;5.57;2.80;;;20.90;35.10;;;;;;5057763;28;20043;-63
2022/04/21 13:22:33;;;;;;;5.45;2.58;;;20.90;35.20;;;;;;5057420;28;20029;-63
2022/04/21 13:24:58;;;;;;;8.00;2.90;;;20.80;35.30;;;;;;5057786;28;20052;-63
2022/04/21 13:27:26;;;;;;;4.93;2.33;;;20.70;36.00;;;;;;5056504;28;20472;-64
2022/04/21 13:29:53;;;;;;;5.13;2.40;;;20.60;35.40;;;;;;5057805;28;20043;-64
2022/04/21 13:35:05;;;;;;;5.20;2.15;;;20.60;35.60;;;;;;5057836;28;20131;-64
2022/04/21 13:37:31;;;;;;;5.57;2.28;;;20.60;35.70;;;;;;5057501;28;20061;-64
2022/04/21 13:39:56;;;;;;;6.45;2.55;;;20.60;35.70;;;;;;5057235;28;20409;-64